Aviation Digital Data Service (ADDS)

Output produced by METARs form (0123 UTC 24 September 2018)
found at http://www.aviationweather.gov/metar/data/
 
KCHS 240056Z 00000KT 10SM OVC070 24/23 A3007 RMK AO2 SLP182 T02440233 $
KCHS 232320Z 2400/2424 VRB03KT P6SM FEW015 SCT035 BKN060 
     FM241500 09009KT P6SM VCSH SCT025 BKN040 
     FM242200 10008KT P6SM SCT035 BKN060